createdAt,value
2019-03-11T00:02:33.812Z,99753.23
2019-03-11T00:05:37.557Z,99761.70
2019-03-11T00:08:41.312Z,99746.48
2019-03-11T00:11:44.611Z,99751.23
2019-03-11T00:14:47.887Z,99744.59
2019-03-11T00:17:51.455Z,99722.40
2019-03-11T00:20:54.873Z,99717.52
2019-03-11T00:23:57.831Z,99696.00
2019-03-11T00:27:01.501Z,99695.87
2019-03-11T00:30:05.466Z,99696.78
2019-03-11T00:33:08.930Z,99696.56
2019-03-11T00:36:12.233Z,99691.88
2019-03-11T00:39:15.561Z,99679.70
2019-03-11T00:42:18.473Z,99668.41
2019-03-11T00:45:21.427Z,99661.94
2019-03-11T00:48:25.230Z,99684.06
2019-03-11T00:51:28.467Z,99665.75
2019-03-11T00:54:31.677Z,99673.27
2019-03-11T00:57:35.663Z,99671.43
2019-03-11T01:00:38.711Z,99677.11
2019-03-11T01:03:42.026Z,99677.55
2019-03-11T01:06:45.726Z,99678.28
2019-03-11T01:09:49.021Z,99672.61
2019-03-11T01:12:52.033Z,99682.22
2019-03-11T01:15:56.100Z,99679.25
2019-03-11T01:18:59.008Z,99692.77
2019-03-11T01:22:02.429Z,99701.03
2019-03-11T01:25:06.231Z,99694.61
2019-03-11T01:28:09.744Z,99696.87
2019-03-11T01:31:12.686Z,99688.08
2019-03-11T01:34:15.602Z,99689.84
2019-03-11T01:37:18.981Z,99685.95
2019-03-11T01:40:22.596Z,99683.76
2019-03-11T01:43:26.564Z,99681.97
2019-03-11T01:46:29.504Z,99678.81
2019-03-11T01:49:32.752Z,99679.73
2019-03-11T01:52:35.986Z,99680.13
2019-03-11T01:55:38.898Z,99677.64
2019-03-11T01:58:41.850Z,99689.52
2019-03-11T02:01:44.860Z,99694.33
2019-03-11T02:04:48.139Z,99675.97
2019-03-11T02:07:51.503Z,99679.86
2019-03-11T02:10:54.850Z,99661.50
2019-03-11T02:13:57.813Z,99673.42
2019-03-11T02:17:02.422Z,99663.73
2019-03-11T02:20:08.216Z,99670.33
2019-03-11T02:23:11.547Z,99669.12
2019-03-11T02:26:14.458Z,99669.97
2019-03-11T02:29:17.711Z,99671.23
2019-03-11T02:32:21.181Z,99676.00
2019-03-11T02:35:27.716Z,99676.55
2019-03-11T02:38:31.338Z,99663.45
2019-03-11T02:41:34.661Z,99664.75
2019-03-11T02:44:38.050Z,99669.89
2019-03-11T02:47:41.699Z,99672.19
2019-03-11T02:50:45.120Z,99680.45
2019-03-11T02:53:48.526Z,99686.56
2019-03-11T02:56:51.438Z,99673.09
2019-03-11T02:59:54.402Z,99677.02
2019-03-11T03:03:08.842Z,99672.66
2019-03-11T03:06:15.367Z,99676.52
2019-03-11T03:09:18.328Z,99676.95
2019-03-11T03:12:21.855Z,99684.78
2019-03-11T03:15:25.077Z,99694.00
2019-03-11T03:18:28.335Z,99689.66
2019-03-11T03:21:31.319Z,99681.33
2019-03-11T03:24:34.244Z,99684.02
2019-03-11T03:27:37.286Z,99675.75
2019-03-11T03:30:42.261Z,99681.86
2019-03-11T03:33:45.514Z,99671.75
2019-03-11T03:36:48.833Z,99679.70
2019-03-11T03:39:52.538Z,99678.77
2019-03-11T03:42:56.751Z,99675.71
2019-03-11T03:46:00.051Z,99672.72
2019-03-11T03:49:02.997Z,99668.72
2019-03-11T03:52:05.917Z,99669.62
2019-03-11T03:55:08.863Z,99675.68
2019-03-11T03:58:12.583Z,99666.13
2019-03-11T04:01:16.524Z,99662.20
2019-03-11T04:04:19.442Z,99659.61
2019-03-11T04:07:22.377Z,99655.72
2019-03-11T04:10:25.297Z,99660.48
2019-03-11T04:13:28.226Z,99664.89
2019-03-11T04:16:31.795Z,99665.33
2019-03-11T04:19:35.100Z,99673.70
2019-03-11T04:22:39.291Z,99671.50
2019-03-11T04:25:42.342Z,99667.08
2019-03-11T04:28:45.309Z,99678.02
2019-03-11T04:31:49.156Z,99681.02
2019-03-11T04:34:52.472Z,99691.99
2019-03-11T04:37:55.770Z,99685.04
2019-03-11T04:40:58.724Z,99690.66
2019-03-11T04:44:01.713Z,99681.05
2019-03-11T04:47:04.691Z,99687.57
2019-03-11T04:50:10.439Z,99685.83
2019-03-11T04:53:13.393Z,99681.48
2019-03-11T04:56:17.122Z,99713.88
2019-03-11T04:59:20.049Z,99697.74
2019-03-11T05:02:23.498Z,99690.71
2019-03-11T05:05:26.897Z,99689.81
2019-03-11T05:08:30.964Z,99691.17
2019-03-11T05:11:34.223Z,99697.77
2019-03-11T05:14:37.869Z,99693.30
2019-03-11T05:17:40.796Z,99703.02
2019-03-11T05:20:43.740Z,99710.45
2019-03-11T05:23:46.664Z,99703.03
2019-03-11T05:26:49.654Z,99704.71
2019-03-11T05:29:52.598Z,99708.66
2019-03-11T05:32:55.545Z,99717.00
2019-03-11T05:35:59.580Z,99706.48
2019-03-11T05:39:04.245Z,99708.23
2019-03-11T05:42:08.572Z,99705.64
2019-03-11T05:45:12.591Z,99707.39
2019-03-11T05:48:15.781Z,99703.44
2019-03-11T05:51:18.713Z,99703.42
2019-03-11T05:54:21.631Z,99716.05
2019-03-11T05:57:24.570Z,99704.32
2019-03-11T06:00:29.291Z,99716.99
2019-03-11T06:03:32.674Z,99712.61
2019-03-11T06:06:35.929Z,99711.25
2019-03-11T06:09:39.494Z,99726.52
2019-03-11T06:12:42.437Z,99712.13
2019-03-11T06:15:46.079Z,99721.80
2019-03-11T06:18:51.629Z,99716.98
2019-03-11T06:22:03.173Z,99724.02
2019-03-11T06:25:06.399Z,99720.53
2019-03-11T06:28:09.343Z,99729.67
2019-03-11T06:31:12.866Z,99743.26
2019-03-11T06:34:16.124Z,99745.41
2019-03-11T06:37:19.064Z,99757.66
2019-03-11T06:40:22.258Z,99755.06
2019-03-11T06:43:26.306Z,99756.36
2019-03-11T06:46:29.969Z,99780.77
2019-03-11T06:49:34.694Z,99779.45
2019-03-11T06:52:37.924Z,99785.56
2019-03-11T06:55:41.112Z,99784.70
2019-03-11T06:58:44.045Z,99789.07
2019-03-11T07:01:47.979Z,99786.45
2019-03-11T07:04:52.417Z,99785.59
2019-03-11T07:07:55.350Z,99791.25
2019-03-11T07:10:59.587Z,99793.00
2019-03-11T07:14:02.892Z,99792.98
2019-03-11T07:17:06.107Z,99787.75
2019-03-11T07:20:10.623Z,99804.34
2019-03-11T07:23:13.648Z,99809.14
2019-03-11T07:26:16.612Z,99802.59
2019-03-11T07:29:19.541Z,99807.40
2019-03-11T07:32:22.714Z,99816.13
2019-03-11T07:35:26.413Z,99814.80
2019-03-11T07:38:29.752Z,99815.69
2019-03-11T07:41:32.675Z,99826.14
2019-03-11T07:44:36.263Z,99821.80
2019-03-11T07:47:39.467Z,99812.63
2019-03-11T07:50:42.411Z,99825.28
2019-03-11T07:53:46.030Z,99813.49
2019-03-11T07:56:48.966Z,99823.97
2019-03-11T07:59:51.990Z,99814.39
2019-03-11T08:02:54.907Z,99827.89
2019-03-11T08:05:58.274Z,99840.10
2019-03-11T08:09:02.459Z,99847.06
2019-03-11T08:12:07.698Z,99847.07
2019-03-11T08:15:12.253Z,99849.68
2019-03-11T08:18:15.507Z,99867.14
2019-03-11T08:21:19.055Z,99859.29
2019-03-11T08:24:23.003Z,99861.89
2019-03-11T08:27:27.189Z,99854.94
2019-03-11T08:30:30.815Z,99863.67
2019-03-11T08:33:33.733Z,99859.29
2019-03-11T08:36:37.162Z,99878.94
2019-03-11T08:39:40.328Z,99864.10
2019-03-11T08:42:43.902Z,99882.42
2019-03-11T08:45:47.102Z,99880.69
2019-03-11T08:48:50.052Z,99876.77
2019-03-11T08:51:53.267Z,99888.55
2019-03-11T08:54:56.578Z,99882.34
2019-03-11T08:57:59.509Z,99886.05
2019-03-11T09:01:02.425Z,99884.88
2019-03-11T09:04:05.772Z,99888.91
2019-03-11T09:07:09.087Z,99906.20
2019-03-11T09:10:13.043Z,99900.33
2019-03-11T09:13:16.080Z,99903.52
2019-03-11T09:16:20.243Z,99902.83
2019-03-11T09:19:23.218Z,99899.23
2019-03-11T09:22:26.139Z,99912.72
2019-03-11T09:25:29.555Z,99906.09
2019-03-11T09:28:33.039Z,99921.10
2019-03-11T09:31:36.347Z,99941.95
2019-03-11T09:34:39.767Z,99923.91
2019-03-11T09:37:43.028Z,99932.52
2019-03-11T09:40:46.320Z,99932.94
2019-03-11T09:43:49.580Z,99930.31
2019-03-11T09:46:53.864Z,99944.80
2019-03-11T09:49:57.138Z,99939.15
2019-03-11T09:53:00.439Z,99950.06
2019-03-11T09:56:03.804Z,99951.83
2019-03-11T09:59:06.751Z,99961.44
2019-03-11T10:02:12.294Z,99956.17
2019-03-11T10:05:15.251Z,99959.25
2019-03-11T10:08:18.748Z,99975.41
2019-03-11T10:11:22.265Z,99967.56
2019-03-11T10:14:25.646Z,99984.14
2019-03-11T10:17:28.970Z,99972.78
2019-03-11T10:20:32.000Z,99972.80
2019-03-11T10:23:34.952Z,99960.97
2019-03-11T10:26:38.259Z,99968.83
2019-03-11T10:29:41.310Z,99969.24
2019-03-11T10:32:44.822Z,99964.86
2019-03-11T10:35:48.805Z,99970.50
2019-03-11T10:38:52.417Z,99967.06
2019-03-11T10:41:55.695Z,99965.28
2019-03-11T10:44:58.664Z,99962.91
2019-03-11T10:48:02.350Z,99965.56
2019-03-11T10:51:05.281Z,99974.36
2019-03-11T10:54:08.573Z,99980.98
2019-03-11T10:57:11.840Z,99979.69
2019-03-11T11:00:18.487Z,99984.54
2019-03-11T11:03:22.541Z,99999.00
2019-03-11T11:06:25.475Z,99996.38
2019-03-11T11:09:28.894Z,100003.39
2019-03-11T11:12:31.809Z,100006.45
2019-03-11T11:15:34.788Z,100012.11
2019-03-11T11:18:37.740Z,100016.04
2019-03-11T11:21:40.944Z,100033.51
2019-03-11T11:24:44.270Z,100033.50
2019-03-11T11:27:48.929Z,100039.63
2019-03-11T11:30:52.170Z,100040.48
2019-03-11T11:33:56.861Z,100044.87
2019-03-11T11:37:00.282Z,100052.30
2019-03-11T11:40:07.186Z,100062.80
2019-03-11T11:43:10.531Z,100060.16
2019-03-11T11:46:13.845Z,100055.33
2019-03-11T11:49:16.771Z,100054.33
2019-03-11T11:52:20.017Z,100056.10
2019-03-11T11:55:23.259Z,100060.97
2019-03-11T11:58:26.617Z,100053.49
2019-03-11T12:01:29.726Z,100057.03
2019-03-11T12:04:32.643Z,100053.98
2019-03-11T12:07:35.674Z,100054.44
2019-03-11T12:10:38.752Z,100051.80
2019-03-11T12:13:41.675Z,100046.06
2019-03-11T12:16:44.643Z,100050.48
2019-03-11T12:19:47.946Z,100043.03
2019-03-11T12:22:51.236Z,100043.90
2019-03-11T12:25:54.176Z,100049.58
2019-03-11T12:28:58.199Z,100058.78
2019-03-11T12:32:01.611Z,100072.79
2019-03-11T12:35:05.036Z,100094.63
2019-03-11T12:38:07.992Z,100108.66
2019-03-11T12:41:11.340Z,100145.39
2019-03-11T12:44:14.939Z,100109.55
2019-03-11T12:47:18.873Z,100108.70
2019-03-11T12:50:21.834Z,100102.98
2019-03-11T12:53:25.124Z,100109.30
2019-03-11T12:56:28.443Z,100113.33
2019-03-11T12:59:31.731Z,100094.78
2019-03-11T13:02:35.304Z,100097.10
2019-03-11T13:05:38.211Z,100099.35
2019-03-11T13:08:41.167Z,100094.41
2019-03-11T13:11:44.758Z,100100.67
2019-03-11T13:14:48.706Z,100106.95
2019-03-11T13:17:52.300Z,100096.94
2019-03-11T13:20:55.536Z,100098.59
2019-03-11T13:23:58.586Z,100115.75
2019-03-11T13:27:01.841Z,100103.81
2019-03-11T13:30:05.642Z,100111.39
2019-03-11T13:33:09.599Z,100105.70
2019-03-11T13:36:13.558Z,100122.89
2019-03-11T13:39:16.502Z,100126.30
2019-03-11T13:42:19.768Z,100132.45
2019-03-11T13:45:22.984Z,100151.31
2019-03-11T13:48:25.919Z,100156.58
2019-03-11T13:51:29.306Z,100155.94
2019-03-11T13:54:32.237Z,100154.69
2019-03-11T13:57:35.177Z,100155.02
2019-03-11T14:00:38.098Z,100155.18
2019-03-11T14:03:41.043Z,100156.55
2019-03-11T14:06:44.972Z,100169.72
2019-03-11T14:09:48.242Z,100172.31
2019-03-11T14:12:51.210Z,100185.06
2019-03-11T14:15:57.065Z,100173.22
2019-03-11T14:19:00.560Z,100173.02
2019-03-11T14:22:03.793Z,100181.41
2019-03-11T14:25:06.820Z,100189.36
2019-03-11T14:28:10.729Z,100206.00
2019-03-11T14:31:14.395Z,100196.39
2019-03-11T14:34:18.169Z,100194.20
2019-03-11T14:37:21.384Z,100207.41
2019-03-11T14:40:24.454Z,100223.21
2019-03-11T14:43:27.442Z,100230.67
2019-03-11T14:46:31.074Z,100233.76
2019-03-11T14:49:35.089Z,100228.51
2019-03-11T14:52:38.054Z,100222.36
2019-03-11T14:55:41.669Z,100223.63
2019-03-11T14:58:44.992Z,100210.52
2019-03-11T15:01:48.327Z,100232.84
2019-03-11T15:04:52.311Z,100208.70
2019-03-11T15:07:55.976Z,100215.28
2019-03-11T15:10:59.270Z,100194.00
2019-03-11T15:14:02.553Z,100201.83
2019-03-11T15:17:05.961Z,100196.17
2019-03-11T15:20:09.760Z,100215.17
2019-03-11T15:23:20.259Z,100218.97
2019-03-11T15:26:25.093Z,100212.47
2019-03-11T15:29:24.076Z,100198.89
2019-03-11T15:32:27.409Z,100214.28
2019-03-11T15:35:30.347Z,100208.09
2019-03-11T15:38:33.804Z,100209.48
2019-03-11T15:41:36.829Z,100221.73
2019-03-11T15:44:40.133Z,100209.92
2019-03-11T15:47:43.592Z,100211.70
2019-03-11T15:50:46.815Z,100221.31
2019-03-11T15:53:49.737Z,100225.73
2019-03-11T15:56:52.973Z,100207.75
2019-03-11T15:59:56.289Z,100229.75
2019-03-11T16:02:59.289Z,100254.28
2019-03-11T16:06:02.489Z,100253.89
2019-03-11T16:09:05.989Z,100261.79
2019-03-11T16:12:10.833Z,100262.22
2019-03-11T16:15:14.525Z,100261.79
2019-03-11T16:18:18.853Z,100277.55
2019-03-11T16:21:21.826Z,100285.85
2019-03-11T16:24:24.736Z,100292.38
2019-03-11T16:27:28.042Z,100292.83
2019-03-11T16:30:31.462Z,100281.44
2019-03-11T16:33:34.389Z,100336.56
2019-03-11T16:36:37.325Z,100350.95
2019-03-11T16:39:40.651Z,100342.19
2019-03-11T16:42:43.617Z,100370.16
2019-03-11T16:45:46.645Z,100388.97
2019-03-11T16:48:49.620Z,100378.41
2019-03-11T16:51:52.916Z,100378.05
2019-03-11T16:54:56.234Z,100374.97
2019-03-11T16:57:59.518Z,100385.01
2019-03-11T17:01:04.760Z,100395.54
2019-03-11T17:04:07.883Z,100381.52
2019-03-11T17:07:11.212Z,100385.87
2019-03-11T17:10:14.764Z,100394.17
2019-03-11T17:13:17.820Z,100405.99
2019-03-11T17:16:21.602Z,100415.17
2019-03-11T17:19:25.845Z,100416.50
2019-03-11T17:22:28.797Z,100416.48
2019-03-11T17:25:31.742Z,100424.34
2019-03-11T17:28:34.668Z,100429.98
2019-03-11T17:31:38.273Z,100441.86
2019-03-11T17:34:41.526Z,100426.91
2019-03-11T17:37:44.693Z,100441.38
2019-03-11T17:40:47.943Z,100441.34
2019-03-11T17:43:50.919Z,100459.33
2019-03-11T17:46:53.966Z,100484.70
2019-03-11T17:49:57.423Z,100478.20
2019-03-11T17:53:01.192Z,100491.73
2019-03-11T17:56:04.919Z,100477.70
2019-03-11T17:59:08.657Z,100505.77
2019-03-11T18:02:11.900Z,100511.38
2019-03-11T18:05:16.641Z,100511.48
2019-03-11T18:08:19.982Z,100528.91
2019-03-11T18:11:23.059Z,100529.40
2019-03-11T18:14:26.706Z,100540.80
2019-03-11T18:17:30.031Z,100550.80
2019-03-11T18:20:33.680Z,100556.95
2019-03-11T18:23:36.712Z,100573.09
2019-03-11T18:26:40.112Z,100569.64
2019-03-11T18:29:43.137Z,100585.80
2019-03-11T18:32:46.511Z,100570.48
2019-03-11T18:35:50.044Z,100580.59
2019-03-11T18:38:53.739Z,100584.03
2019-03-11T18:41:57.831Z,100590.23
2019-03-11T18:45:00.749Z,100596.79
2019-03-11T18:48:03.726Z,100598.53
2019-03-11T18:51:11.238Z,100614.70
2019-03-11T18:54:13.008Z,100632.65
2019-03-11T18:57:16.048Z,100625.21
2019-03-11T19:00:19.272Z,100641.86
2019-03-11T19:03:23.056Z,100651.42
2019-03-11T19:06:26.160Z,100640.13
2019-03-11T19:09:29.610Z,100652.37
2019-03-11T19:12:33.006Z,100666.80
2019-03-11T19:15:36.908Z,100665.94
2019-03-11T19:18:40.669Z,100668.54
2019-03-11T19:21:44.424Z,100669.34
2019-03-11T19:24:47.869Z,100674.65
2019-03-11T19:27:51.948Z,100665.89
2019-03-11T19:30:56.733Z,100690.36
2019-03-11T19:33:59.965Z,100677.27
2019-03-11T19:37:03.206Z,100705.33
2019-03-11T19:40:07.370Z,100702.23
2019-03-11T19:43:10.638Z,100708.41
2019-03-11T19:46:13.665Z,100718.49
2019-03-11T19:49:17.933Z,100724.99
2019-03-11T19:52:20.976Z,100726.37
2019-03-11T19:55:24.035Z,100722.86
2019-03-11T19:58:27.101Z,100727.33
2019-03-11T20:01:30.335Z,100725.50
2019-03-11T20:04:33.744Z,100725.14
2019-03-11T20:07:36.723Z,100735.15
2019-03-11T20:10:40.052Z,100738.66
2019-03-11T20:13:43.433Z,100745.62
2019-03-11T20:16:46.568Z,100746.92
2019-03-11T20:19:49.787Z,100744.77
2019-03-11T20:22:53.418Z,100756.63
2019-03-11T20:25:56.837Z,100766.19
2019-03-11T20:29:00.189Z,100767.52
2019-03-11T20:32:04.021Z,100778.84
2019-03-11T20:35:07.249Z,100778.50
2019-03-11T20:38:11.187Z,100784.17
2019-03-11T20:41:15.281Z,100786.83
2019-03-11T20:44:19.851Z,100786.41
2019-03-11T20:47:24.316Z,100790.77
2019-03-11T20:50:27.675Z,100795.63
2019-03-11T20:53:32.025Z,100799.63
2019-03-11T20:56:36.738Z,100795.63
2019-03-11T20:59:39.796Z,100803.43
2019-03-11T21:02:43.051Z,100811.31
2019-03-11T21:05:46.137Z,100808.33
2019-03-11T21:08:50.068Z,100818.38
2019-03-11T21:11:54.721Z,100822.77
2019-03-11T21:14:58.317Z,100820.69
2019-03-11T21:18:01.534Z,100829.77
2019-03-11T21:21:05.549Z,100831.94
2019-03-11T21:24:09.999Z,100835.51
2019-03-11T21:27:13.356Z,100831.98
2019-03-11T21:30:18.167Z,100826.69
2019-03-11T21:33:21.673Z,100831.11
2019-03-11T21:36:24.898Z,100836.38
2019-03-11T21:39:28.236Z,100837.14
2019-03-11T21:42:31.334Z,100836.73
2019-03-11T21:45:35.019Z,100836.77
2019-03-11T21:48:38.358Z,100845.92
2019-03-11T21:51:41.351Z,100840.54
2019-03-11T21:54:47.443Z,100852.81
2019-03-11T21:57:50.209Z,100846.31
2019-03-11T22:00:53.768Z,100846.30
2019-03-11T22:03:56.783Z,100851.49
2019-03-11T22:07:00.159Z,100850.23
2019-03-11T22:10:03.679Z,100863.70
2019-03-11T22:13:06.683Z,100863.33
2019-03-11T22:16:09.647Z,100869.52
2019-03-11T22:19:12.967Z,100874.37
2019-03-11T22:22:16.536Z,100887.03
2019-03-11T22:25:20.467Z,100888.80
2019-03-11T22:28:23.460Z,100878.23
2019-03-11T22:31:26.787Z,100885.17
2019-03-11T22:34:30.022Z,100881.28
2019-03-11T22:37:32.963Z,100880.53
2019-03-11T22:40:36.200Z,100884.02
2019-03-11T22:43:39.244Z,100883.53
2019-03-11T22:46:42.559Z,100884.45
2019-03-11T22:49:46.104Z,100884.52
2019-03-11T22:52:49.238Z,100882.78
2019-03-11T22:55:53.300Z,100891.80
2019-03-11T22:58:56.910Z,100884.30
2019-03-11T23:02:00.178Z,100889.73
2019-03-11T23:05:03.355Z,100896.38
2019-03-11T23:08:06.991Z,100887.59
2019-03-11T23:11:10.393Z,100892.35
2019-03-11T23:14:13.708Z,100883.67
2019-03-11T23:17:16.658Z,100880.24
2019-03-11T23:20:19.946Z,100870.59
2019-03-11T23:23:23.253Z,100880.05
2019-03-11T23:26:26.960Z,100881.66
2019-03-11T23:29:30.195Z,100878.18
2019-03-11T23:32:33.754Z,100885.19
2019-03-11T23:35:36.715Z,100886.66
2019-03-11T23:38:40.249Z,100893.72
2019-03-11T23:41:44.183Z,100887.46
2019-03-11T23:44:47.180Z,100894.86
2019-03-11T23:47:50.115Z,100885.77
2019-03-11T23:50:53.692Z,100881.88
2019-03-11T23:53:57.680Z,100879.99
2019-03-11T23:57:01.025Z,100873.81
